Time;durP1;ratioP1;P1;durP2;ratioP2;P2;SDS_P1;SDS_P2;PMS_P1;PMS_P2;Temp;Humidity;BMP_temperature;BMP_pressure;BME280_temperature;BME280_humidity;BME280_pressure;Samples;Min_cycle;Max_cycle;Signal;HPM_P1;HPM_P2
2021/07/06 00:01:53;;;;;;;0.50;0.50;;;21.20;98.50;;;;;;5060185;28;20107;-79
2021/07/06 00:04:18;;;;;;;0.53;0.43;;;21.10;99.30;;;;;;5051128;28;20032;-79
2021/07/06 00:06:44;;;;;;;0.37;0.37;;;21.00;99.80;;;;;;5057062;28;20040;-79
2021/07/06 00:09:10;;;;;;;0.60;0.20;;;21.00;99.90;;;;;;5060454;28;20117;-79
2021/07/06 00:11:36;;;;;;;0.00;0.00;;;21.00;99.90;;;;;;5057588;28;20517;-79
2021/07/06 00:14:02;;;;;;;0.30;0.27;;;20.80;99.90;;;;;;5053514;28;20195;-79
2021/07/06 00:16:28;;;;;;;0.25;0.25;;;20.80;99.90;;;;;;5063646;28;20649;-79
2021/07/06 00:18:54;;;;;;;0.10;0.10;;;20.80;99.90;;;;;;5050965;28;20041;-79
2021/07/06 00:21:19;;;;;;;0.33;0.33;;;20.90;99.90;;;;;;5054181;28;20714;-79
2021/07/06 00:23:46;;;;;;;0.00;0.00;;;21.00;99.90;;;;;;5059288;28;20029;-79
2021/07/06 00:26:11;;;;;;;0.45;0.35;;;21.00;99.90;;;;;;5062019;28;20123;-79
2021/07/06 00:28:37;;;;;;;0.43;0.20;;;21.00;99.90;;;;;;5052269;28;20120;-79
2021/07/06 00:31:04;;;;;;;0.00;0.00;;;20.90;99.90;;;;;;5054566;28;20332;-79
2021/07/06 00:33:30;;;;;;;;;;;20.90;99.90;;;;;;5053215;28;20030;-79
2021/07/06 00:35:58;;;;;;;;;;;21.00;99.90;;;;;;5053817;28;20389;-79
2021/07/06 00:38:28;;;;;;;0.10;0.10;;;21.00;99.90;;;;;;5052300;28;20610;-79
2021/07/06 00:40:55;;;;;;;0.50;0.47;;;21.00;99.90;;;;;;5053547;28;20029;-79
2021/07/06 00:43:21;;;;;;;0.00;0.00;;;21.00;99.90;;;;;;5056313;28;20057;-79
2021/07/06 00:45:48;;;;;;;0.10;0.10;;;20.90;99.90;;;;;;5058914;28;20174;-78
2021/07/06 00:48:14;;;;;;;0.00;0.00;;;20.50;99.90;;;;;;5050694;28;20033;-79
2021/07/06 00:50:40;;;;;;;0.55;0.30;;;20.30;99.90;;;;;;5055480;28;20035;-78
2021/07/06 00:53:05;;;;;;;2.33;1.25;;;20.30;99.90;;;;;;5058842;28;20028;-79
2021/07/06 00:55:31;;;;;;;0.17;0.17;;;20.30;99.90;;;;;;5061230;28;20506;-79
2021/07/06 00:57:57;;;;;;;0.00;0.00;;;20.10;99.90;;;;;;5052051;28;20036;-78
2021/07/06 01:00:25;;;;;;;5.53;1.27;;;20.00;99.90;;;;;;5052199;28;20021;-79
2021/07/06 01:02:51;;;;;;;0.10;0.10;;;19.90;99.90;;;;;;5050414;28;20020;-79
2021/07/06 01:05:21;;;;;;;0.10;0.10;;;19.90;99.90;;;;;;5059818;28;20032;-79
2021/07/06 01:07:48;;;;;;;0.57;0.40;;;20.00;99.90;;;;;;5056895;28;20411;-79
2021/07/06 01:10:14;;;;;;;1.00;0.52;;;19.90;99.90;;;;;;5053579;28;20078;-78
2021/07/06 01:12:44;;;;;;;0.10;0.10;;;19.80;99.90;;;;;;5050734;28;20740;-79
2021/07/06 01:15:21;;;;;;;0.22;0.20;;;19.70;99.90;;;;;;5052783;28;20024;-79
2021/07/06 01:18:17;;;;;;;2.25;0.17;;;19.70;99.90;;;;;;5052349;28;20073;-79
2021/07/06 01:20:54;;;;;;;0.15;0.15;;;19.60;99.90;;;;;;5049189;28;20071;-79
2021/07/06 01:23:21;;;;;;;0.00;0.00;;;19.60;99.90;;;;;;5056107;28;20073;-79
2021/07/06 01:25:51;;;;;;;0.03;0.03;;;19.50;99.90;;;;;;5052330;28;20044;-79
2021/07/06 01:28:16;;;;;;;0.20;0.20;;;19.40;99.90;;;;;;5054912;28;20039;-79
2021/07/06 01:30:43;;;;;;;0.13;0.13;;;19.40;99.90;;;;;;5060633;28;20561;-79
2021/07/06 01:33:09;;;;;;;0.28;0.28;;;19.30;99.90;;;;;;5057911;28;20021;-79
2021/07/06 01:35:35;;;;;;;0.00;0.00;;;19.30;99.90;;;;;;5048376;28;20444;-79
2021/07/06 01:38:04;;;;;;;0.10;0.10;;;19.20;99.90;;;;;;5059088;28;20024;-79
2021/07/06 01:40:31;;;;;;;0.00;0.00;;;19.20;99.90;;;;;;5059930;28;20044;-79
2021/07/06 01:42:58;;;;;;;0.00;0.00;;;19.20;99.90;;;;;;5051130;28;20041;-79
2021/07/06 01:45:26;;;;;;;1.48;1.02;;;19.10;99.90;;;;;;5052662;28;20568;-79
2021/07/06 01:47:55;;;;;;;0.38;0.38;;;19.10;99.90;;;;;;5046728;28;20037;-79
2021/07/06 01:50:24;;;;;;;0.35;0.35;;;19.10;99.90;;;;;;5057189;28;20025;-79
2021/07/06 01:52:52;;;;;;;0.20;0.20;;;19.00;99.90;;;;;;5060534;28;20033;-80
2021/07/06 01:55:22;;;;;;;0.10;0.10;;;19.00;99.90;;;;;;5051555;28;20063;-79
2021/07/06 01:57:50;;;;;;;3.75;1.30;;;19.10;99.90;;;;;;5047830;28;20029;-80
2021/07/06 02:00:19;;;;;;;2.38;0.32;;;19.10;99.90;;;;;;5057715;28;20576;-80
2021/07/06 02:02:45;;;;;;;0.15;0.15;;;19.00;99.90;;;;;;5054928;28;20028;-79
2021/07/06 02:05:14;;;;;;;0.08;0.08;;;18.90;99.90;;;;;;5056214;28;20025;-80
2021/07/06 02:07:40;;;;;;;0.45;0.45;;;18.90;99.90;;;;;;5059287;28;20029;-79
2021/07/06 02:10:07;;;;;;;0.10;0.00;;;18.90;99.90;;;;;;5056191;28;20024;-79
2021/07/06 02:12:33;;;;;;;3.10;0.75;;;18.90;99.90;;;;;;5054701;28;20064;-79
2021/07/06 02:15:00;;;;;;;0.00;0.00;;;18.90;99.90;;;;;;5053368;28;20455;-79
2021/07/06 02:17:26;;;;;;;0.35;0.28;;;18.90;99.90;;;;;;5055690;28;20024;-79
2021/07/06 02:19:52;;;;;;;0.00;0.00;;;18.80;99.90;;;;;;5057074;28;20033;-79
2021/07/06 02:22:18;;;;;;;0.00;0.00;;;18.70;99.90;;;;;;5057807;28;20131;-79
2021/07/06 02:24:45;;;;;;;0.00;0.00;;;18.80;99.90;;;;;;5059412;28;20458;-79
2021/07/06 02:27:10;;;;;;;;;;;18.70;99.90;;;;;;5050295;28;20275;-79
2021/07/06 02:29:37;;;;;;;0.00;0.00;;;18.60;99.90;;;;;;5048001;28;20374;-79
2021/07/06 02:32:03;;;;;;;0.20;0.20;;;18.70;99.90;;;;;;5057251;28;20555;-79
2021/07/06 02:34:29;;;;;;;0.30;0.30;;;18.70;99.90;;;;;;5051041;28;20112;-79
2021/07/06 02:36:54;;;;;;;0.10;0.10;;;18.80;99.90;;;;;;5054152;28;20119;-79
2021/07/06 02:39:20;;;;;;;0.00;0.00;;;18.70;99.90;;;;;;5049355;28;20033;-79
2021/07/06 02:41:46;;;;;;;0.00;0.00;;;18.80;99.90;;;;;;5046957;28;20391;-79
2021/07/06 02:44:12;;;;;;;0.00;0.00;;;18.70;99.90;;;;;;5055617;28;20036;-79
2021/07/06 02:46:37;;;;;;;0.57;0.27;;;18.70;99.90;;;;;;5050278;28;20048;-79
2021/07/06 02:49:03;;;;;;;0.00;0.00;;;18.70;99.90;;;;;;5058794;28;20037;-80
2021/07/06 02:51:29;;;;;;;0.00;0.00;;;18.70;99.90;;;;;;5048595;28;20029;-79
2021/07/06 02:53:55;;;;;;;0.00;0.00;;;18.70;99.90;;;;;;5049721;28;20391;-79
2021/07/06 02:56:20;;;;;;;0.00;0.00;;;18.70;99.90;;;;;;5051532;28;20027;-79
2021/07/06 02:58:46;;;;;;;0.00;0.00;;;18.60;99.90;;;;;;5057748;28;20490;-79
2021/07/06 03:01:12;;;;;;;0.00;0.00;;;18.60;99.90;;;;;;5051944;28;20597;-79
2021/07/06 03:03:38;;;;;;;0.00;0.00;;;18.60;99.90;;;;;;5058143;28;20064;-79
2021/07/06 03:06:04;;;;;;;0.00;0.00;;;18.60;99.90;;;;;;5056770;28;20064;-79
2021/07/06 03:08:30;;;;;;;0.10;0.10;;;18.60;99.90;;;;;;5053297;28;20104;-79
2021/07/06 03:10:57;;;;;;;0.10;0.10;;;18.60;99.90;;;;;;5059298;28;20198;-79
2021/07/06 03:13:23;;;;;;;0.00;0.00;;;18.50;99.90;;;;;;5058991;28;20111;-79
2021/07/06 03:15:49;;;;;;;0.13;0.13;;;18.50;99.90;;;;;;5056944;28;20119;-80
2021/07/06 03:18:15;;;;;;;0.03;0.03;;;18.50;99.90;;;;;;5060274;28;20275;-79
2021/07/06 03:20:40;;;;;;;0.50;0.50;;;18.60;99.90;;;;;;5058526;28;20031;-79
2021/07/06 03:23:07;;;;;;;0.00;0.00;;;18.60;99.90;;;;;;5059129;28;20056;-79
2021/07/06 03:25:33;;;;;;;0.00;0.00;;;18.50;99.90;;;;;;5059361;28;20029;-79
2021/07/06 03:28:00;;;;;;;0.00;0.00;;;18.50;99.90;;;;;;5050964;28;20116;-79
2021/07/06 03:30:29;;;;;;;0.00;0.00;;;18.40;99.90;;;;;;5064403;28;20029;-79
2021/07/06 03:32:57;;;;;;;0.00;0.00;;;18.40;99.90;;;;;;5056144;28;20031;-79
2021/07/06 03:35:23;;;;;;;0.00;0.00;;;18.50;99.90;;;;;;5057333;28;20035;-79
2021/07/06 03:37:49;;;;;;;;;;;18.50;99.90;;;;;;5055798;28;20040;-79
2021/07/06 03:40:16;;;;;;;0.00;0.00;;;18.40;99.90;;;;;;5058632;28;19913;-80
2021/07/06 03:42:42;;;;;;;0.00;0.00;;;18.40;99.90;;;;;;5050118;28;20407;-79
2021/07/06 03:45:10;;;;;;;0.00;0.00;;;18.50;99.90;;;;;;5054070;28;20033;-79
2021/07/06 03:47:36;;;;;;;0.00;0.00;;;18.40;99.90;;;;;;5055046;28;20029;-79
2021/07/06 03:50:04;;;;;;;0.00;0.00;;;18.40;99.90;;;;;;5054111;28;20035;-79
2021/07/06 03:52:30;;;;;;;0.03;0.03;;;18.40;99.90;;;;;;5055413;28;20402;-80
2021/07/06 03:54:56;;;;;;;0.07;0.07;;;18.40;99.90;;;;;;5059411;28;20024;-79
2021/07/06 03:57:31;;;;;;;0.73;0.73;;;18.40;99.90;;;;;;5048484;28;20293;-79
2021/07/06 04:00:03;;;;;;;0.03;0.03;;;18.40;99.90;;;;;;5052766;28;20025;-79
2021/07/06 04:02:29;;;;;;;0.00;0.00;;;18.40;99.90;;;;;;5056263;28;20119;-79
2021/07/06 04:04:56;;;;;;;0.00;0.00;;;18.40;99.90;;;;;;5057165;28;20071;-79
2021/07/06 04:07:22;;;;;;;0.00;0.00;;;18.40;99.90;;;;;;5048694;28;20029;-79
2021/07/06 04:09:48;;;;;;;0.00;0.00;;;18.40;99.90;;;;;;5056964;28;20078;-79
2021/07/06 04:12:15;;;;;;;0.00;0.00;;;18.40;99.90;;;;;;5056355;28;20107;-79
2021/07/06 04:14:41;;;;;;;0.00;0.00;;;18.40;99.90;;;;;;5055200;28;20094;-79
2021/07/06 04:17:07;;;;;;;0.28;0.20;;;18.30;99.90;;;;;;5062195;28;20382;-79
2021/07/06 04:19:33;;;;;;;0.00;0.00;;;18.30;99.90;;;;;;5058424;28;20040;-79
2021/07/06 04:21:58;;;;;;;0.00;0.00;;;18.20;99.90;;;;;;5056733;28;20068;-79
2021/07/06 04:24:24;;;;;;;0.00;0.00;;;18.20;99.90;;;;;;5059029;28;20760;-79
2021/07/06 04:26:50;;;;;;;0.20;0.20;;;18.30;99.90;;;;;;5062358;28;20047;-79
2021/07/06 04:29:16;;;;;;;0.00;0.00;;;18.20;99.90;;;;;;5060613;28;20079;-80
2021/07/06 04:31:41;;;;;;;0.00;0.00;;;18.30;99.90;;;;;;5053912;28;20082;-80
2021/07/06 04:34:07;;;;;;;0.53;0.30;;;18.30;99.90;;;;;;5053780;28;20024;-79
2021/07/06 04:36:33;;;;;;;0.00;0.00;;;18.40;99.90;;;;;;5053199;28;20028;-79
2021/07/06 04:38:59;;;;;;;0.40;0.10;;;18.40;99.90;;;;;;5054967;28;20032;-79
2021/07/06 04:41:24;;;;;;;0.00;0.00;;;18.40;99.90;;;;;;5057569;28;20037;-79
2021/07/06 04:43:50;;;;;;;0.10;0.00;;;18.50;99.90;;;;;;5053990;28;20057;-80
2021/07/06 04:46:16;;;;;;;0.00;0.00;;;18.40;99.90;;;;;;5063003;28;20032;-79
2021/07/06 04:48:42;;;;;;;0.00;0.00;;;18.40;99.90;;;;;;5063325;28;20493;-82
2021/07/06 04:51:09;;;;;;;0.03;0.03;;;18.30;99.90;;;;;;5062656;28;20703;-82
2021/07/06 04:53:37;;;;;;;0.00;0.00;;;18.20;99.90;;;;;;5060665;28;20058;-82
2021/07/06 04:56:03;;;;;;;0.10;0.10;;;18.20;99.90;;;;;;5053295;28;20021;-84
2021/07/06 04:58:29;;;;;;;0.30;0.30;;;18.20;99.90;;;;;;5060965;28;20029;-82
2021/07/06 05:00:56;;;;;;;0.00;0.00;;;18.10;99.90;;;;;;5060292;28;20052;-79
2021/07/06 05:03:22;;;;;;;0.00;0.00;;;18.20;99.90;;;;;;5062495;28;20033;-79
2021/07/06 05:05:49;;;;;;;0.00;0.00;;;18.20;99.90;;;;;;5051088;28;20040;-80
2021/07/06 05:08:15;;;;;;;0.00;0.00;;;18.20;99.90;;;;;;5055759;28;20136;-79
2021/07/06 05:10:41;;;;;;;;;;;18.20;99.90;;;;;;5056787;28;20036;-79
2021/07/06 05:13:07;;;;;;;0.00;0.00;;;18.30;99.90;;;;;;5063755;28;20400;-79
2021/07/06 05:15:33;;;;;;;0.00;0.00;;;18.20;99.90;;;;;;5054151;28;20120;-79
2021/07/06 05:17:58;;;;;;;0.00;0.00;;;18.30;99.90;;;;;;5056937;28;20032;-79
2021/07/06 05:20:24;;;;;;;0.00;0.00;;;18.30;99.90;;;;;;5059680;28;20031;-79
2021/07/06 05:22:50;;;;;;;0.43;0.43;;;18.30;99.90;;;;;;5057081;28;20450;-78
2021/07/06 05:25:16;;;;;;;0.00;0.00;;;18.40;99.90;;;;;;5059211;28;20032;-79
2021/07/06 05:27:43;;;;;;;0.10;0.10;;;18.40;99.90;;;;;;5053831;28;20095;-79
2021/07/06 05:30:09;;;;;;;0.00;0.00;;;18.40;99.90;;;;;;5054031;28;20486;-79
2021/07/06 05:32:37;;;;;;;0.00;0.00;;;18.40;99.90;;;;;;5061060;28;20440;-79
2021/07/06 05:35:05;;;;;;;0.00;0.00;;;18.50;99.90;;;;;;5051230;28;20025;-79
2021/07/06 05:37:31;;;;;;;0.00;0.00;;;18.40;99.90;;;;;;5062366;28;20020;-79
2021/07/06 05:39:57;;;;;;;0.00;0.00;;;18.40;99.90;;;;;;5050984;28;20024;-78
2021/07/06 05:42:23;;;;;;;0.35;0.35;;;18.30;99.90;;;;;;5062530;28;20080;-79
2021/07/06 05:44:50;;;;;;;0.00;0.00;;;18.20;99.90;;;;;;5055042;28;20043;-79
2021/07/06 05:47:17;;;;;;;0.00;0.00;;;18.20;99.90;;;;;;5050261;28;20090;-79
2021/07/06 05:49:42;;;;;;;;;;;18.20;99.90;;;;;;5055464;28;20033;-80
2021/07/06 05:52:09;;;;;;;0.00;0.00;;;18.40;99.90;;;;;;5053079;28;20423;-79
2021/07/06 05:54:35;;;;;;;0.00;0.00;;;18.50;99.90;;;;;;5055531;28;20582;-79
2021/07/06 05:57:01;;;;;;;0.00;0.00;;;18.60;99.90;;;;;;5061928;28;20059;-79
2021/07/06 05:59:27;;;;;;;0.00;0.00;;;18.50;99.90;;;;;;5057196;28;20044;-79
2021/07/06 06:01:53;;;;;;;0.10;0.10;;;18.90;99.90;;;;;;5049999;28;20043;-79
2021/07/06 06:04:19;;;;;;;0.00;0.00;;;19.00;99.90;;;;;;5062124;28;20067;-79
2021/07/06 06:06:46;;;;;;;0.00;0.00;;;19.00;99.90;;;;;;5061055;28;20032;-79
2021/07/06 06:09:12;;;;;;;0.00;0.00;;;19.10;99.90;;;;;;5064004;28;20157;-80
2021/07/06 06:11:38;;;;;;;0.00;0.00;;;18.80;99.90;;;;;;5065644;28;20052;-79
2021/07/06 06:14:04;;;;;;;0.00;0.00;;;18.90;99.90;;;;;;5047053;28;20549;-79
2021/07/06 06:16:30;;;;;;;0.00;0.00;;;18.80;99.90;;;;;;5049720;28;20073;-79
2021/07/06 06:18:56;;;;;;;0.00;0.00;;;18.70;99.90;;;;;;5046529;28;20040;-80
2021/07/06 06:21:23;;;;;;;0.30;0.30;;;18.90;99.90;;;;;;5047746;28;20029;-79
2021/07/06 06:23:49;;;;;;;1.25;0.43;;;18.90;99.90;;;;;;5047981;28;20053;-80
2021/07/06 06:26:15;;;;;;;0.00;0.00;;;19.00;99.90;;;;;;5046477;28;20056;-80
2021/07/06 06:28:41;;;;;;;0.00;0.00;;;19.10;99.90;;;;;;5047972;28;20037;-80
2021/07/06 06:31:08;;;;;;;0.00;0.00;;;19.10;99.90;;;;;;5046772;28;20082;-80
2021/07/06 06:33:33;;;;;;;0.00;0.00;;;19.00;99.90;;;;;;5048018;28;20083;-80
2021/07/06 06:35:59;;;;;;;0.23;0.23;;;19.60;99.90;;;;;;5048022;28;20025;-80
2021/07/06 06:38:25;;;;;;;0.00;0.00;;;20.00;99.90;;;;;;5049975;28;20479;-80
2021/07/06 06:40:51;;;;;;;0.27;0.10;;;19.70;99.90;;;;;;5051915;28;20033;-80
2021/07/06 06:43:17;;;;;;;0.00;0.00;;;20.20;99.90;;;;;;5050398;28;20059;-80
2021/07/06 06:45:45;;;;;;;0.00;0.00;;;19.60;99.90;;;;;;5051728;28;20595;-80
2021/07/06 06:48:11;;;;;;;0.00;0.00;;;19.90;99.90;;;;;;5052872;28;20151;-80
2021/07/06 06:50:38;;;;;;;0.27;0.20;;;19.80;99.90;;;;;;5067984;28;20115;-80
2021/07/06 06:53:03;;;;;;;;;;;19.80;99.90;;;;;;5065591;28;20032;-80
2021/07/06 06:55:29;;;;;;;0.00;0.00;;;19.90;99.90;;;;;;5069268;28;19911;-79
2021/07/06 06:57:55;;;;;;;0.00;0.00;;;19.60;99.90;;;;;;5052887;28;20162;-80
2021/07/06 07:00:21;;;;;;;2.00;0.47;;;19.50;99.90;;;;;;5057384;28;20029;-79
2021/07/06 07:02:50;;;;;;;0.00;0.00;;;19.30;99.90;;;;;;5050496;28;20692;-79
2021/07/06 07:05:16;;;;;;;0.55;0.55;;;19.50;99.90;;;;;;5058456;28;20112;-79
2021/07/06 07:07:43;;;;;;;0.22;0.22;;;20.00;99.90;;;;;;5062327;28;20025;-79
2021/07/06 07:10:11;;;;;;;;;;;21.00;99.90;;;;;;5065215;28;20554;-80
2021/07/06 07:12:39;;;;;;;0.00;0.00;;;20.40;99.90;;;;;;5050001;28;19912;-79
2021/07/06 07:15:07;;;;;;;0.00;0.00;;;20.40;99.90;;;;;;5056249;28;20169;-79
2021/07/06 07:17:33;;;;;;;0.00;0.00;;;20.40;99.90;;;;;;5058567;28;20032;-80
2021/07/06 07:19:59;;;;;;;0.32;0.32;;;20.40;99.90;;;;;;5054301;28;20035;-79
2021/07/06 07:22:25;;;;;;;2.13;0.77;;;20.40;99.90;;;;;;5056243;28;20033;-79
2021/07/06 07:24:51;;;;;;;0.00;0.00;;;20.30;99.90;;;;;;5054738;28;20486;-79
2021/07/06 07:27:17;;;;;;;0.80;0.20;;;19.90;99.90;;;;;;5056412;28;20025;-79
2021/07/06 07:29:43;;;;;;;0.08;0.08;;;19.70;99.90;;;;;;5052205;28;20176;-79
2021/07/06 07:32:10;;;;;;;0.00;0.00;;;20.00;99.90;;;;;;5052475;28;20024;-79
2021/07/06 07:34:36;;;;;;;0.00;0.00;;;20.10;99.90;;;;;;5063122;28;20760;-79
2021/07/06 07:37:04;;;;;;;0.20;0.10;;;20.10;99.90;;;;;;5048454;28;20017;-79
2021/07/06 07:39:30;;;;;;;0.00;0.00;;;20.00;99.90;;;;;;5056075;28;20028;-80
2021/07/06 07:41:56;;;;;;;0.85;0.85;;;20.20;99.90;;;;;;5052912;28;20394;-80
2021/07/06 07:44:22;;;;;;;0.00;0.00;;;20.20;99.90;;;;;;5051065;28;20652;-79
2021/07/06 07:46:48;;;;;;;0.03;0.03;;;20.00;99.90;;;;;;5047670;28;20032;-79
2021/07/06 07:49:14;;;;;;;0.00;0.00;;;19.90;99.90;;;;;;5048213;28;20680;-79
2021/07/06 07:51:39;;;;;;;0.00;0.00;;;20.60;99.90;;;;;;5051750;28;20033;-79
2021/07/06 07:54:05;;;;;;;0.00;0.00;;;20.70;99.90;;;;;;5054698;28;20521;-79
2021/07/06 07:56:31;;;;;;;0.10;0.10;;;21.10;99.90;;;;;;5057845;28;20028;-79
2021/07/06 07:58:57;;;;;;;0.00;0.00;;;21.00;99.90;;;;;;5047407;28;20683;-79
2021/07/06 08:01:23;;;;;;;0.85;0.00;;;21.20;99.90;;;;;;5051765;28;20029;-79
2021/07/06 08:03:49;;;;;;;0.00;0.00;;;23.40;99.90;;;;;;5059714;28;20037;-79
2021/07/06 08:06:14;;;;;;;0.00;0.00;;;24.30;99.60;;;;;;5057315;28;20551;-79
2021/07/06 08:08:40;;;;;;;0.00;0.00;;;23.90;98.80;;;;;;5062846;28;20894;-79
2021/07/06 08:11:06;;;;;;;0.00;0.00;;;23.20;99.60;;;;;;5048824;28;20033;-79
2021/07/06 08:13:33;;;;;;;0.00;0.00;;;22.60;99.20;;;;;;5053425;28;20321;-81
2021/07/06 08:15:59;;;;;;;0.00;0.00;;;22.90;99.70;;;;;;5060686;28;20263;-79
2021/07/06 08:18:25;;;;;;;0.00;0.00;;;23.00;99.10;;;;;;5067397;28;20029;-79
2021/07/06 08:20:51;;;;;;;0.00;0.00;;;24.40;97.90;;;;;;5066147;28;20037;-79
2021/07/06 08:23:17;;;;;;;0.00;0.00;;;23.70;97.30;;;;;;5054943;28;20303;-80
2021/07/06 08:25:44;;;;;;;0.20;0.10;;;23.40;97.60;;;;;;5059490;28;20043;-80
2021/07/06 08:28:10;;;;;;;0.00;0.00;;;24.30;97.80;;;;;;5050040;28;20888;-79
2021/07/06 08:30:38;;;;;;;0.10;0.10;;;26.60;95.10;;;;;;5052332;28;20032;-80
2021/07/06 08:33:04;;;;;;;0.00;0.00;;;26.10;94.00;;;;;;5046903;28;20029;-79
2021/07/06 08:35:30;;;;;;;0.00;0.00;;;25.60;95.00;;;;;;5050384;28;20021;-80
2021/07/06 08:37:56;;;;;;;0.10;0.10;;;24.30;96.30;;;;;;5048240;28;20112;-79
2021/07/06 08:40:22;;;;;;;0.00;0.00;;;23.90;96.30;;;;;;5060582;28;20028;-80
2021/07/06 08:42:48;;;;;;;0.00;0.00;;;24.40;96.60;;;;;;5061487;28;20525;-80
2021/07/06 08:45:15;;;;;;;0.03;0.03;;;25.60;94.30;;;;;;5050106;28;20037;-79
2021/07/06 08:47:45;;;;;;;;;;;23.60;96.70;;;;;;5054879;28;20074;-80
2021/07/06 08:50:12;;;;;;;0.13;0.13;;;22.50;98.20;;;;;;5054470;28;19916;-80
2021/07/06 08:52:44;;;;;;;0.00;0.00;;;22.60;97.80;;;;;;5043373;28;20029;-79
2021/07/06 08:55:10;;;;;;;0.20;0.20;;;23.00;97.70;;;;;;5053344;28;20028;-80
2021/07/06 08:57:40;;;;;;;0.00;0.00;;;22.80;97.10;;;;;;5066655;28;20028;-80
2021/07/06 09:00:08;;;;;;;0.30;0.30;;;23.30;97.40;;;;;;5050692;28;20386;-80
2021/07/06 09:02:34;;;;;;;0.10;0.10;;;25.90;95.30;;;;;;5051141;28;20036;-79
2021/07/06 09:05:00;;;;;;;0.00;0.00;;;24.70;94.60;;;;;;5047805;28;20036;-80
2021/07/06 09:07:42;;;;;;;0.00;0.00;;;25.10;94.50;;;;;;5061663;28;20090;-80
2021/07/06 09:10:16;;;;;;;0.25;0.20;;;26.60;93.20;;;;;;5053120;28;20051;-80
2021/07/06 09:12:44;;;;;;;0.00;0.00;;;27.10;90.20;;;;;;5048321;28;20056;-79
2021/07/06 09:15:32;;;;;;;0.08;0.05;;;24.90;92.80;;;;;;5049853;28;20017;-80
2021/07/06 09:18:15;;;;;;;0.45;0.30;;;23.60;94.30;;;;;;5047612;28;20024;-80
2021/07/06 09:21:02;;;;;;;0.00;0.00;;;23.60;93.70;;;;;;5049146;28;20155;-80
2021/07/06 09:23:49;;;;;;;0.00;0.00;;;24.20;92.40;;;;;;5047428;28;20103;-79
2021/07/06 09:26:24;;;;;;;0.43;0.10;;;23.50;93.10;;;;;;5048906;28;20112;-79
2021/07/06 09:28:54;;;;;;;0.00;0.00;;;23.40;92.10;;;;;;5047588;28;20037;-79
2021/07/06 09:31:31;;;;;;;0.00;0.00;;;23.20;92.00;;;;;;5048642;28;20024;-80
2021/07/06 09:34:04;;;;;;;0.00;0.00;;;23.70;92.70;;;;;;5049957;28;20052;-80
2021/07/06 09:36:31;;;;;;;0.00;0.00;;;22.50;92.60;;;;;;5059453;28;20051;-80
2021/07/06 09:39:11;;;;;;;0.13;0.13;;;22.70;94.60;;;;;;5054689;28;20110;-80
2021/07/06 09:41:40;;;;;;;0.13;0.13;;;22.70;95.90;;;;;;5048712;28;20025;-80
2021/07/06 09:44:17;;;;;;;0.00;0.00;;;23.20;95.20;;;;;;5056141;28;20033;-79
2021/07/06 09:47:04;;;;;;;0.05;0.05;;;24.00;93.20;;;;;;5052315;28;20473;-80
2021/07/06 09:49:35;;;;;;;0.00;0.00;;;24.80;92.00;;;;;;5056090;28;20038;-79
2021/07/06 09:52:13;;;;;;;0.00;0.00;;;25.60;90.00;;;;;;5055608;28;20052;-80
2021/07/06 09:54:52;;;;;;;0.00;0.00;;;26.10;89.50;;;;;;5059534;28;20085;-80
2021/07/06 09:57:28;;;;;;;0.00;0.00;;;24.70;91.90;;;;;;5055567;28;20025;-80
2021/07/06 10:00:00;;;;;;;0.10;0.10;;;23.90;91.80;;;;;;5047107;28;20571;-79
2021/07/06 10:02:29;;;;;;;3.60;0.25;;;23.20;91.60;;;;;;5058628;28;20100;-80
2021/07/06 10:04:56;;;;;;;5.07;0.10;;;23.60;91.90;;;;;;5047776;28;20032;-79
2021/07/06 10:07:23;;;;;;;0.00;0.00;;;23.30;91.20;;;;;;5048927;28;20090;-79
2021/07/06 10:09:50;;;;;;;0.15;0.15;;;23.20;91.90;;;;;;5054172;28;20520;-80
2021/07/06 10:12:18;;;;;;;0.00;0.00;;;22.50;92.80;;;;;;5052214;28;20039;-79
2021/07/06 10:14:45;;;;;;;0.08;0.05;;;22.20;94.10;;;;;;5052860;28;20132;-80
2021/07/06 10:17:11;;;;;;;0.00;0.00;;;21.60;95.60;;;;;;5060222;28;20027;-79
2021/07/06 10:19:42;;;;;;;0.00;0.00;;;21.70;95.00;;;;;;5060525;28;20032;-80
2021/07/06 10:22:10;;;;;;;0.00;0.00;;;21.50;95.00;;;;;;5054724;28;20021;-80
2021/07/06 10:24:38;;;;;;;0.00;0.00;;;21.20;96.10;;;;;;5061568;28;20032;-79
2021/07/06 10:27:07;;;;;;;0.10;0.10;;;20.70;96.20;;;;;;5054793;28;20020;-79
2021/07/06 10:29:37;;;;;;;0.00;0.00;;;20.70;97.10;;;;;;5063926;28;20587;-79
2021/07/06 10:32:04;;;;;;;0.00;0.00;;;20.80;96.70;;;;;;5054116;28;20044;-79
2021/07/06 10:34:40;;;;;;;0.38;0.38;;;20.90;95.90;;;;;;5063029;28;20104;-79
2021/07/06 10:37:28;;;;;;;0.00;0.00;;;20.50;97.50;;;;;;5057818;28;20024;-80
2021/07/06 10:39:54;;;;;;;0.00;0.00;;;20.50;97.50;;;;;;5051870;28;20118;-79
2021/07/06 10:42:36;;;;;;;0.00;0.00;;;20.70;97.30;;;;;;5057667;28;20053;-79
2021/07/06 10:45:12;;;;;;;0.00;0.00;;;20.90;97.80;;;;;;5062126;28;20033;-80
2021/07/06 10:47:38;;;;;;;0.00;0.00;;;20.70;97.10;;;;;;5058124;28;20041;-80
2021/07/06 10:50:23;;;;;;;0.15;0.15;;;20.70;97.60;;;;;;5054478;28;20036;-79
2021/07/06 10:53:09;;;;;;;0.15;0.15;;;20.60;97.40;;;;;;5058151;28;20042;-79
2021/07/06 10:55:36;;;;;;;0.00;0.00;;;20.80;97.20;;;;;;5053001;28;20100;-79
2021/07/06 10:58:02;;;;;;;0.00;0.00;;;20.90;96.80;;;;;;5056979;28;20044;-79
2021/07/06 11:00:42;;;;;;;0.00;0.00;;;21.40;96.50;;;;;;5050699;28;20028;-79
2021/07/06 11:03:16;;;;;;;0.10;0.10;;;21.90;95.50;;;;;;5067599;28;20029;-79
2021/07/06 11:05:43;;;;;;;2.05;0.70;;;22.80;95.20;;;;;;5065206;28;20025;-80
2021/07/06 11:08:42;;;;;;;0.00;0.00;;;23.30;94.50;;;;;;5057585;28;20040;-80
2021/07/06 11:11:08;;;;;;;0.20;0.20;;;23.00;93.50;;;;;;5049395;28;20024;-80
2021/07/06 11:13:34;;;;;;;;;;;22.30;94.50;;;;;;5049465;28;20067;-80
2021/07/06 11:16:03;;;;;;;0.22;0.22;;;22.40;94.10;;;;;;5057852;28;19912;-80
2021/07/06 11:18:41;;;;;;;0.05;0.05;;;21.80;95.10;;;;;;5052359;28;20525;-80
2021/07/06 11:21:31;;;;;;;0.00;0.00;;;22.10;95.30;;;;;;5057187;28;20104;-80
2021/07/06 11:24:16;;;;;;;0.00;0.00;;;22.10;95.80;;;;;;5050676;28;20025;-80
2021/07/06 11:26:44;;;;;;;0.08;0.08;;;22.30;95.20;;;;;;5049989;28;20118;-80
2021/07/06 11:29:11;;;;;;;0.00;0.00;;;21.80;95.50;;;;;;5059702;28;20032;-80
2021/07/06 11:31:37;;;;;;;0.20;0.20;;;21.40;96.00;;;;;;5051669;28;20438;-80
2021/07/06 11:34:05;;;;;;;1.02;0.28;;;21.10;96.60;;;;;;5053890;28;20029;-79
2021/07/06 11:36:32;;;;;;;0.00;0.00;;;21.40;96.00;;;;;;5049333;28;20040;-79
2021/07/06 11:39:00;;;;;;;0.10;0.10;;;21.60;96.10;;;;;;5058326;28;20505;-80
2021/07/06 11:41:26;;;;;;;0.00;0.00;;;21.40;95.60;;;;;;5057097;28;20025;-80
2021/07/06 11:43:52;;;;;;;0.00;0.00;;;21.80;95.60;;;;;;5056227;28;20048;-80
2021/07/06 11:46:26;;;;;;;0.00;0.00;;;21.80;94.60;;;;;;5067935;28;20798;-80
2021/07/06 11:48:54;;;;;;;0.55;0.20;;;21.80;95.70;;;;;;5068265;28;20314;-79
2021/07/06 11:51:21;;;;;;;1.27;0.57;;;21.50;95.20;;;;;;5067587;28;20016;-79
2021/07/06 11:54:02;;;;;;;0.00;0.00;;;21.30;96.70;;;;;;5067917;28;20675;-79
2021/07/06 11:56:29;;;;;;;0.00;0.00;;;21.10;99.90;;;;;;5058257;28;20386;-79
2021/07/06 11:58:56;;;;;;;0.00;0.00;;;20.70;99.90;;;;;;5067797;28;20057;-79
2021/07/06 12:01:22;;;;;;;0.00;0.00;;;21.10;99.90;;;;;;5063701;28;20021;-79
2021/07/06 12:03:48;;;;;;;0.10;0.10;;;21.20;99.90;;;;;;5059640;28;20039;-79
2021/07/06 12:06:17;;;;;;;0.00;0.00;;;21.00;99.90;;;;;;5055961;28;20113;-79
2021/07/06 12:08:52;;;;;;;0.08;0.08;;;21.20;99.90;;;;;;5060055;28;20024;-79
2021/07/06 12:11:19;;;;;;;0.00;0.00;;;21.50;99.90;;;;;;5052909;28;20105;-79
2021/07/06 12:13:50;;;;;;;0.00;0.00;;;21.70;99.90;;;;;;5049570;28;20025;-79
2021/07/06 12:16:25;;;;;;;0.45;0.25;;;21.90;99.90;;;;;;5049941;28;20672;-80
2021/07/06 12:18:53;;;;;;;0.45;0.03;;;21.50;99.90;;;;;;5051908;28;20047;-80
2021/07/06 12:21:31;;;;;;;0.47;0.38;;;20.90;99.90;;;;;;5048533;28;20029;-79
2021/07/06 12:24:04;;;;;;;0.10;0.08;;;20.60;99.90;;;;;;5051884;28;20040;-80
2021/07/06 12:26:32;;;;;;;0.10;0.10;;;20.70;99.90;;;;;;5049056;28;20093;-80
2021/07/06 12:28:58;;;;;;;0.00;0.00;;;21.30;99.90;;;;;;5048401;28;20548;-79
2021/07/06 12:31:27;;;;;;;5.22;1.23;;;21.10;99.90;;;;;;5061835;28;20478;-79
2021/07/06 12:34:07;;;;;;;0.00;0.00;;;20.90;99.90;;;;;;5056529;28;20020;-80
2021/07/06 12:36:35;;;;;;;0.15;0.15;;;20.70;99.90;;;;;;5050680;28;20017;-79
2021/07/06 12:39:21;;;;;;;0.20;0.10;;;20.70;99.90;;;;;;5055821;28;20028;-79
2021/07/06 12:41:55;;;;;;;0.00;0.00;;;20.80;99.90;;;;;;5051241;28;20115;-80
2021/07/06 12:44:31;;;;;;;0.00;0.00;;;20.50;99.90;;;;;;5057812;28;20036;-79
2021/07/06 12:47:20;;;;;;;0.00;0.00;;;20.70;99.90;;;;;;5053164;28;20039;-80
2021/07/06 12:50:02;;;;;;;0.10;0.10;;;20.50;99.90;;;;;;5061523;28;20060;-80
2021/07/06 12:52:56;;;;;;;0.20;0.10;;;20.70;99.90;;;;;;5055813;28;20048;-79
2021/07/06 12:55:25;;;;;;;0.00;0.00;;;20.90;99.90;;;;;;5055624;28;20013;-79
2021/07/06 12:58:07;;;;;;;0.00;0.00;;;20.70;99.90;;;;;;5064291;28;20736;-79